Time;durP1;ratioP1;P1;durP2;ratioP2;P2;SDS_P1;SDS_P2;PMS_P1;PMS_P2;Temp;Humidity;BMP_temperature;BMP_pressure;BME280_temperature;BME280_humidity;BME280_pressure;Samples;Min_cycle;Max_cycle;Signal;HPM_P1;HPM_P2
2024/04/13 00:01:46;;;;;;;14.77;4.38;;;13.30;99.90;;;;;;5490172;25;20012;-75
2024/04/13 00:04:15;;;;;;;9.77;4.07;;;13.30;99.90;;;;;;5502567;25;20024;-75
2024/04/13 00:06:45;;;;;;;9.20;4.18;;;13.20;99.90;;;;;;5469227;25;20041;-76
2024/04/13 00:09:13;;;;;;;10.88;5.88;;;13.30;99.90;;;;;;5460745;26;20835;-75
2024/04/13 00:11:44;;;;;;;8.73;4.30;;;13.20;99.90;;;;;;5462632;26;20049;-76
2024/04/13 00:14:12;;;;;;;10.80;4.68;;;13.20;99.90;;;;;;5463832;26;19999;-75
2024/04/13 00:16:44;;;;;;;9.82;3.97;;;13.10;99.90;;;;;;5464195;26;20069;-75
2024/04/13 00:19:12;;;;;;;11.30;4.10;;;13.10;99.90;;;;;;5463840;26;19998;-76
2024/04/13 00:21:41;;;;;;;7.97;4.32;;;13.10;99.90;;;;;;5468946;26;20014;-75
2024/04/13 00:24:14;;;;;;;9.30;3.78;;;13.10;99.90;;;;;;5468736;25;19999;-75
2024/04/13 00:26:41;;;;;;;;;;;13.00;99.90;;;;;;5471122;26;20010;-75
2024/04/13 00:29:13;;;;;;;8.60;4.03;;;13.00;99.90;;;;;;5470014;25;19932;-75
2024/04/13 00:31:44;;;;;;;7.03;3.75;;;13.00;99.90;;;;;;5460729;26;20476;-75
2024/04/13 00:34:14;;;;;;;8.27;3.63;;;12.90;99.90;;;;;;5457873;26;20003;-75
2024/04/13 00:36:42;;;;;;;17.98;3.83;;;12.90;99.90;;;;;;5471219;26;20074;-76
2024/04/13 00:39:12;;;;;;;7.43;4.05;;;12.90;99.90;;;;;;5466310;26;21828;-75
2024/04/13 00:41:40;;;;;;;11.77;4.22;;;12.80;99.90;;;;;;5467677;25;19999;-75
2024/04/13 00:44:10;;;;;;;8.23;3.83;;;12.80;99.90;;;;;;5448687;26;20072;-76
2024/04/13 00:46:42;;;;;;;10.30;4.63;;;12.80;99.90;;;;;;5461195;26;20061;-77
2024/04/13 00:49:19;;;;;;;8.18;3.80;;;12.80;99.90;;;;;;5471663;26;20018;-77
2024/04/13 00:51:52;;;;;;;7.65;3.60;;;12.80;99.90;;;;;;5475570;26;20041;-77
2024/04/13 00:54:23;;;;;;;;;;;12.80;99.90;;;;;;5466692;26;19999;-77
2024/04/13 00:56:53;;;;;;;9.40;3.83;;;12.80;99.90;;;;;;5465068;26;19932;-77
2024/04/13 00:59:25;;;;;;;14.52;4.25;;;12.70;99.90;;;;;;5453862;26;20009;-77
2024/04/13 01:01:53;;;;;;;13.43;4.23;;;12.70;99.90;;;;;;5487444;25;19998;-77
2024/04/13 01:04:26;;;;;;;8.90;3.40;;;12.70;99.90;;;;;;5462458;26;20240;-77
2024/04/13 01:06:54;;;;;;;9.00;4.13;;;12.70;99.90;;;;;;5452603;26;20379;-77
2024/04/13 01:09:25;;;;;;;7.30;3.42;;;12.70;99.90;;;;;;5461988;26;20071;-77
2024/04/13 01:11:53;;;;;;;11.15;4.43;;;12.60;99.90;;;;;;5469165;26;20453;-77
2024/04/13 01:14:24;;;;;;;8.23;3.40;;;12.60;99.90;;;;;;5464389;26;20002;-77
2024/04/13 01:16:52;;;;;;;8.05;3.90;;;12.50;99.90;;;;;;5531676;25;20005;-77
2024/04/13 01:19:22;;;;;;;5.50;3.30;;;12.50;99.90;;;;;;5460553;25;20010;-77
2024/04/13 01:21:53;;;;;;;9.93;3.90;;;12.50;99.90;;;;;;5464990;25;20013;-77
2024/04/13 01:24:26;;;;;;;8.40;3.28;;;12.50;99.90;;;;;;5468249;26;20018;-77
2024/04/13 01:26:55;;;;;;;8.23;3.90;;;12.50;99.90;;;;;;5459871;26;19997;-76
2024/04/13 01:29:26;;;;;;;7.72;3.80;;;12.50;99.90;;;;;;5467325;26;20003;-77
2024/04/13 01:31:53;;;;;;;10.10;3.85;;;12.50;99.90;;;;;;5469260;25;20017;-77
2024/04/13 01:34:24;;;;;;;10.23;4.03;;;12.40;99.90;;;;;;5465879;26;19998;-77
2024/04/13 01:36:51;;;;;;;7.72;4.00;;;12.40;99.90;;;;;;5464058;26;20042;-77
2024/04/13 01:39:22;;;;;;;8.00;4.50;;;12.40;99.90;;;;;;5458157;26;20093;-77
2024/04/13 01:41:54;;;;;;;8.32;3.83;;;12.30;99.90;;;;;;5474962;26;20461;-77
2024/04/13 01:44:24;;;;;;;8.10;4.35;;;12.30;99.90;;;;;;5466216;26;20525;-77
2024/04/13 01:46:52;;;;;;;10.85;3.90;;;12.30;99.90;;;;;;5458351;26;20025;-77
2024/04/13 01:49:23;;;;;;;7.85;4.30;;;12.30;99.90;;;;;;5468937;26;20451;-77
2024/04/13 01:51:50;;;;;;;12.13;4.43;;;12.20;99.90;;;;;;5453914;25;20003;-77
2024/04/13 01:54:21;;;;;;;10.82;3.60;;;12.20;99.90;;;;;;5459818;26;20030;-77
2024/04/13 01:56:48;;;;;;;8.80;4.45;;;12.20;99.90;;;;;;5464392;26;20003;-75
2024/04/13 01:59:22;;;;;;;8.80;4.00;;;12.20;99.90;;;;;;5475918;26;20006;-76
2024/04/13 02:01:50;;;;;;;9.20;5.03;;;12.10;99.90;;;;;;5470116;26;20066;-76
2024/04/13 02:04:20;;;;;;;7.72;3.80;;;12.20;99.90;;;;;;5466278;26;20010;-76
2024/04/13 02:06:48;;;;;;;6.18;3.88;;;12.10;99.90;;;;;;5458910;26;20546;-75
2024/04/13 02:09:18;;;;;;;9.52;4.38;;;12.10;99.90;;;;;;5470539;26;19998;-75
2024/04/13 02:11:46;;;;;;;10.18;4.28;;;12.10;99.90;;;;;;5458320;26;20002;-75
2024/04/13 02:14:16;;;;;;;7.75;4.15;;;12.10;99.90;;;;;;5462827;26;20014;-75
2024/04/13 02:16:48;;;;;;;9.43;4.13;;;12.00;99.90;;;;;;5465004;26;19999;-76
2024/04/13 02:19:18;;;;;;;7.25;3.83;;;12.00;99.90;;;;;;5463571;25;20342;-74
2024/04/13 02:21:47;;;;;;;10.27;4.25;;;12.00;99.90;;;;;;5456403;26;20018;-77
2024/04/13 02:24:18;;;;;;;9.73;4.25;;;11.90;99.90;;;;;;5461234;25;20006;-76
2024/04/13 02:26:46;;;;;;;10.50;4.55;;;11.90;99.90;;;;;;5459268;25;20046;-75
2024/04/13 02:29:16;;;;;;;11.43;4.40;;;11.90;99.90;;;;;;5462786;26;20014;-76
2024/04/13 02:31:46;;;;;;;10.73;5.13;;;11.90;99.90;;;;;;5455323;25;20003;-75
2024/04/13 02:34:17;;;;;;;8.38;4.95;;;11.80;99.90;;;;;;5494022;25;20010;-75
2024/04/13 02:36:46;;;;;;;13.40;5.28;;;11.90;99.90;;;;;;5457830;26;23897;-74
2024/04/13 02:39:18;;;;;;;13.55;5.88;;;11.80;99.90;;;;;;5471088;26;20023;-76
2024/04/13 02:41:45;;;;;;;11.60;4.70;;;11.80;99.90;;;;;;5466038;26;20002;-75
2024/04/13 02:44:16;;;;;;;15.00;5.85;;;11.80;99.90;;;;;;5463905;26;20541;-75
2024/04/13 02:46:47;;;;;;;17.70;5.97;;;11.70;99.90;;;;;;5463103;26;20057;-75
2024/04/13 02:49:17;;;;;;;11.43;5.18;;;11.80;99.90;;;;;;5460402;26;20018;-75
2024/04/13 02:51:45;;;;;;;13.20;4.95;;;11.70;99.90;;;;;;5463904;26;20773;-75
2024/04/13 02:54:15;;;;;;;11.10;4.32;;;11.70;99.90;;;;;;5458332;26;19999;-76
2024/04/13 02:56:43;;;;;;;11.35;4.53;;;11.70;99.90;;;;;;5473906;26;20385;-76
2024/04/13 02:59:13;;;;;;;11.60;4.15;;;11.70;99.90;;;;;;5501114;25;19998;-75
2024/04/13 03:01:41;;;;;;;7.60;4.43;;;11.70;99.90;;;;;;5470773;26;19997;-77
2024/04/13 03:04:14;;;;;;;10.50;4.88;;;11.60;99.90;;;;;;5468949;26;20005;-74
2024/04/13 03:06:42;;;;;;;8.80;4.68;;;11.60;99.90;;;;;;5502165;25;20002;-77
2024/04/13 03:09:12;;;;;;;9.65;4.20;;;11.60;99.90;;;;;;5474487;26;20042;-78
2024/04/13 03:11:40;;;;;;;9.27;4.90;;;11.60;99.90;;;;;;5478989;26;20014;-78
2024/04/13 03:14:11;;;;;;;9.70;4.10;;;11.50;99.90;;;;;;5463002;25;20009;-78
2024/04/13 03:16:38;;;;;;;10.07;5.10;;;11.50;99.90;;;;;;5470987;26;19998;-77
2024/04/13 03:19:08;;;;;;;8.23;4.28;;;11.50;99.90;;;;;;5472303;25;20077;-77
2024/04/13 03:21:39;;;;;;;11.40;5.45;;;11.40;99.90;;;;;;5511624;25;20499;-78
2024/04/13 03:24:11;;;;;;;11.93;4.63;;;11.50;99.90;;;;;;5480626;26;20027;-79
2024/04/13 03:26:38;;;;;;;8.80;4.07;;;11.50;99.90;;;;;;5474597;25;19998;-77
2024/04/13 03:29:09;;;;;;;8.65;4.35;;;11.50;99.90;;;;;;5467510;25;20060;-78
2024/04/13 03:31:36;;;;;;;10.68;5.40;;;11.50;99.90;;;;;;5471523;26;19995;-77
2024/04/13 03:34:07;;;;;;;11.32;4.57;;;11.40;99.90;;;;;;5502153;25;19998;-77
2024/04/13 03:36:35;;;;;;;11.50;4.85;;;11.40;99.90;;;;;;5475792;26;19998;-77
2024/04/13 03:39:09;;;;;;;9.00;4.60;;;11.40;99.90;;;;;;5464380;25;20013;-78
2024/04/13 03:41:39;;;;;;;11.70;4.50;;;11.40;99.90;;;;;;5463603;26;20010;-78
2024/04/13 03:44:07;;;;;;;10.80;4.53;;;11.30;99.90;;;;;;5501123;25;20062;-77
2024/04/13 03:46:38;;;;;;;12.60;5.22;;;11.30;99.90;;;;;;5467782;25;20002;-78
2024/04/13 03:49:05;;;;;;;16.25;6.13;;;11.30;99.90;;;;;;5470704;26;20002;-77
2024/04/13 03:51:36;;;;;;;13.25;4.90;;;11.30;99.90;;;;;;5467445;26;20009;-78
2024/04/13 03:54:07;;;;;;;9.63;4.60;;;11.30;99.90;;;;;;5469050;25;20109;-78
2024/04/13 03:56:37;;;;;;;11.43;5.07;;;11.30;99.90;;;;;;5470208;26;19994;-78
2024/04/13 03:59:05;;;;;;;11.73;4.68;;;11.30;99.90;;;;;;5497713;25;20002;-78
2024/04/13 04:01:35;;;;;;;10.82;4.07;;;11.30;99.90;;;;;;5473200;26;20010;-78
2024/04/13 04:04:03;;;;;;;10.65;5.10;;;11.20;99.90;;;;;;5472651;26;20010;-78
2024/04/13 04:06:34;;;;;;;9.80;4.75;;;11.20;99.90;;;;;;5459408;26;20035;-79
2024/04/13 04:09:09;;;;;;;13.80;4.93;;;11.20;99.90;;;;;;5461922;26;19994;-77
2024/04/13 04:11:39;;;;;;;13.90;5.28;;;11.20;99.90;;;;;;5461228;25;19998;-77
2024/04/13 04:14:07;;;;;;;13.40;4.80;;;11.20;99.90;;;;;;5466686;26;20002;-77
2024/04/13 04:16:37;;;;;;;15.88;5.38;;;11.20;99.90;;;;;;5474449;26;20010;-75
2024/04/13 04:19:04;;;;;;;14.57;5.20;;;11.10;99.90;;;;;;5469136;26;20010;-75
2024/04/13 04:21:35;;;;;;;14.95;5.00;;;11.10;99.90;;;;;;5466137;26;20009;-75
2024/04/13 04:24:03;;;;;;;12.73;5.07;;;11.10;99.90;;;;;;5466266;26;20005;-77
2024/04/13 04:26:36;;;;;;;14.50;4.80;;;11.20;99.90;;;;;;5465444;26;20117;-76
2024/04/13 04:29:03;;;;;;;14.07;5.43;;;11.10;99.90;;;;;;5474242;26;20008;-77
2024/04/13 04:31:34;;;;;;;17.33;5.68;;;11.10;99.90;;;;;;5465969;25;20010;-77
2024/04/13 04:34:01;;;;;;;16.52;6.30;;;11.20;99.90;;;;;;5465815;26;19999;-77
2024/04/13 04:36:32;;;;;;;14.07;5.35;;;11.20;99.90;;;;;;5465022;25;20018;-78
2024/04/13 04:39:00;;;;;;;11.70;5.80;;;11.20;99.90;;;;;;5497217;25;20006;-76
2024/04/13 04:41:30;;;;;;;13.85;5.40;;;11.20;99.90;;;;;;5469432;26;20014;-76
2024/04/13 04:44:01;;;;;;;15.02;5.28;;;11.20;99.90;;;;;;5471071;26;20356;-77
2024/04/13 04:46:31;;;;;;;13.65;5.60;;;11.30;99.90;;;;;;5467851;26;20021;-77
2024/04/13 04:48:58;;;;;;;12.07;5.57;;;11.30;99.90;;;;;;5482829;25;20348;-76
2024/04/13 04:51:29;;;;;;;10.95;5.68;;;11.30;99.90;;;;;;5478520;26;20010;-77
2024/04/13 04:53:56;;;;;;;9.52;5.47;;;11.30;99.90;;;;;;5468559;26;20473;-76
2024/04/13 04:56:29;;;;;;;18.17;6.18;;;11.40;99.90;;;;;;5469789;26;20078;-77
2024/04/13 04:58:56;;;;;;;14.10;6.40;;;11.40;99.90;;;;;;5500533;25;19998;-76
2024/04/13 05:01:29;;;;;;;12.57;5.55;;;11.50;99.90;;;;;;5472007;26;20437;-77
2024/04/13 05:03:57;;;;;;;13.10;6.18;;;11.60;99.90;;;;;;5470532;26;20521;-76
2024/04/13 05:06:28;;;;;;;10.20;4.90;;;11.60;99.90;;;;;;5465736;26;20018;-76
2024/04/13 05:08:56;;;;;;;11.07;5.55;;;11.60;99.90;;;;;;5463444;26;20002;-76
2024/04/13 05:11:26;;;;;;;16.83;6.13;;;11.60;99.90;;;;;;5469768;26;20468;-77
2024/04/13 05:13:54;;;;;;;13.40;6.28;;;11.70;99.90;;;;;;5465262;26;20468;-78
2024/04/13 05:16:24;;;;;;;23.10;10.73;;;11.70;99.90;;;;;;5471974;26;20001;-76
2024/04/13 05:18:54;;;;;;;23.20;10.18;;;11.80;99.90;;;;;;5475586;26;20089;-76
2024/04/13 05:21:26;;;;;;;21.38;8.32;;;11.80;99.90;;;;;;5501044;25;19998;-77
2024/04/13 05:23:54;;;;;;;21.27;8.38;;;11.90;99.90;;;;;;5467209;26;19999;-76
2024/04/13 05:26:24;;;;;;;17.30;8.18;;;12.00;99.90;;;;;;5481112;26;20009;-78
2024/04/13 05:28:52;;;;;;;18.73;7.63;;;12.00;99.90;;;;;;5496153;25;20002;-78
2024/04/13 05:31:22;;;;;;;20.33;7.53;;;12.20;99.90;;;;;;5477243;26;20069;-78
2024/04/13 05:33:50;;;;;;;21.85;8.15;;;12.20;99.90;;;;;;5466152;26;20003;-78
2024/04/13 05:36:24;;;;;;;16.65;7.50;;;12.30;99.90;;;;;;5463152;26;20010;-78
2024/04/13 05:38:52;;;;;;;17.30;7.38;;;12.40;99.90;;;;;;5469719;26;19998;-78
2024/04/13 05:41:22;;;;;;;13.25;6.47;;;12.50;99.90;;;;;;5470858;25;20018;-77
2024/04/13 05:43:50;;;;;;;20.55;7.45;;;12.60;99.90;;;;;;5461573;26;20009;-78
2024/04/13 05:46:20;;;;;;;14.88;6.82;;;12.70;99.90;;;;;;5468912;26;20023;-78
2024/04/13 05:48:47;;;;;;;19.35;7.05;;;12.80;99.90;;;;;;5473251;26;19997;-78
2024/04/13 05:51:18;;;;;;;14.05;6.60;;;12.90;99.90;;;;;;5466039;26;21258;-78
2024/04/13 05:53:48;;;;;;;14.07;6.50;;;13.00;99.90;;;;;;5468262;26;20026;-78
2024/04/13 05:56:18;;;;;;;12.68;6.80;;;13.10;99.90;;;;;;5473072;26;19998;-78
2024/04/13 05:58:46;;;;;;;11.35;7.15;;;13.30;99.90;;;;;;5476837;26;20016;-78
2024/04/13 06:01:16;;;;;;;13.85;7.80;;;13.40;99.90;;;;;;5468213;26;19998;-78
2024/04/13 06:03:44;;;;;;;15.00;6.63;;;13.50;99.90;;;;;;5464224;26;20048;-78
2024/04/13 06:06:14;;;;;;;16.15;6.93;;;13.70;99.90;;;;;;5463782;26;20009;-78
2024/04/13 06:08:42;;;;;;;15.13;6.90;;;13.80;99.90;;;;;;5494513;25;20042;-78
2024/04/13 06:11:15;;;;;;;10.70;5.53;;;14.00;99.90;;;;;;5470780;26;20010;-78
2024/04/13 06:13:42;;;;;;;12.43;6.03;;;14.20;99.90;;;;;;5465923;26;20014;-78
2024/04/13 06:16:13;;;;;;;13.25;5.78;;;14.40;99.90;;;;;;5471473;25;19998;-77
2024/04/13 06:18:40;;;;;;;12.23;6.38;;;14.60;99.90;;;;;;5489764;25;20406;-78
2024/04/13 06:21:11;;;;;;;12.68;5.70;;;14.80;99.90;;;;;;5457141;25;20001;-78
2024/04/13 06:23:38;;;;;;;9.27;5.18;;;15.10;99.90;;;;;;5464358;25;20062;-78
2024/04/13 06:26:09;;;;;;;10.82;5.45;;;15.30;99.90;;;;;;5467660;26;20002;-78
2024/04/13 06:28:39;;;;;;;9.55;5.20;;;15.50;99.90;;;;;;5467191;26;20002;-77
2024/04/13 06:31:10;;;;;;;8.45;4.97;;;15.80;99.90;;;;;;5494102;25;20091;-77
2024/04/13 06:33:37;;;;;;;10.70;4.50;;;15.80;99.90;;;;;;5473535;26;20003;-77
2024/04/13 06:36:08;;;;;;;12.70;5.18;;;16.00;99.90;;;;;;5467827;26;20367;-79
2024/04/13 06:38:36;;;;;;;8.57;5.13;;;16.10;99.90;;;;;;5490989;26;19998;-80
2024/04/13 06:41:07;;;;;;;8.07;4.95;;;16.20;99.90;;;;;;5489848;26;20003;-77
2024/04/13 06:43:35;;;;;;;9.00;5.05;;;16.30;99.90;;;;;;5479962;26;20079;-78
2024/04/13 06:46:07;;;;;;;9.15;5.15;;;16.30;99.90;;;;;;5476048;26;20006;-81
2024/04/13 06:48:35;;;;;;;9.77;4.78;;;16.40;99.90;;;;;;5481958;25;20669;-81
2024/04/13 06:51:06;;;;;;;11.10;5.60;;;16.60;99.90;;;;;;5479485;26;20342;-81
2024/04/13 06:53:35;;;;;;;9.43;5.38;;;16.80;99.90;;;;;;5485397;26;20002;-81
2024/04/13 06:56:05;;;;;;;13.30;5.90;;;16.90;99.90;;;;;;5494989;26;20341;-78
2024/04/13 06:58:33;;;;;;;9.07;4.90;;;17.10;99.90;;;;;;5483798;26;20002;-83
2024/04/13 07:01:03;;;;;;;9.32;5.13;;;17.20;99.90;;;;;;5468534;26;20009;-82
2024/04/13 07:03:33;;;;;;;8.25;5.05;;;17.30;99.90;;;;;;5487786;26;20042;-80
2024/04/13 07:06:05;;;;;;;12.50;5.07;;;17.40;99.90;;;;;;5483109;26;20002;-82
2024/04/13 07:08:33;;;;;;;8.73;4.68;;;17.40;99.90;;;;;;5488665;25;20013;-80
2024/04/13 07:11:13;;;;;;;11.15;5.10;;;17.60;99.90;;;;;;5488088;25;20001;-79
2024/04/13 07:13:41;;;;;;;10.20;4.88;;;17.80;99.90;;;;;;5516101;25;20022;-80
2024/04/13 07:16:12;;;;;;;8.77;5.20;;;17.80;99.90;;;;;;5482136;26;19998;-81
2024/04/13 07:18:42;;;;;;;6.78;4.90;;;18.10;99.90;;;;;;5493210;25;20002;-83
2024/04/13 07:21:12;;;;;;;9.98;4.80;;;18.30;99.90;;;;;;5498399;26;20009;-82
2024/04/13 07:23:40;;;;;;;8.10;4.45;;;18.40;99.90;;;;;;5484310;26;20078;-80
2024/04/13 07:26:10;;;;;;;7.97;4.40;;;18.60;99.70;;;;;;5489683;25;20469;-79
2024/04/13 07:28:38;;;;;;;7.13;4.63;;;18.70;98.60;;;;;;5477184;26;20337;-79
2024/04/13 07:31:08;;;;;;;13.60;5.45;;;18.70;97.30;;;;;;5472624;26;20030;-81
2024/04/13 07:33:36;;;;;;;9.10;4.30;;;18.90;97.20;;;;;;5483062;26;19989;-83
2024/04/13 07:36:10;;;;;;;6.30;3.67;;;19.20;97.40;;;;;;5480298;26;19998;-80
2024/04/13 07:38:38;;;;;;;9.10;4.68;;;19.40;96.70;;;;;;5480344;26;20030;-81
2024/04/13 07:41:08;;;;;;;7.47;4.13;;;19.50;95.20;;;;;;5486444;26;20002;-79
2024/04/13 07:43:36;;;;;;;10.07;4.00;;;20.00;95.80;;;;;;5510523;25;20009;-81
2024/04/13 07:46:06;;;;;;;6.90;3.60;;;19.50;95.10;;;;;;5486300;26;20003;-84
2024/04/13 07:48:34;;;;;;;10.00;3.35;;;19.80;95.60;;;;;;5517352;25;20002;-81
2024/04/13 07:51:05;;;;;;;8.70;4.20;;;20.20;96.00;;;;;;5479332;26;20047;-83
2024/04/13 07:53:35;;;;;;;8.75;3.80;;;20.20;95.00;;;;;;5484360;26;20671;-83
2024/04/13 07:56:06;;;;;;;9.45;4.10;;;20.20;94.40;;;;;;5486935;26;20010;-83
2024/04/13 07:58:34;;;;;;;6.90;3.40;;;20.40;94.80;;;;;;5475656;26;20023;-80
2024/04/13 08:01:14;;;;;;;14.45;3.70;;;20.60;94.10;;;;;;5483013;26;20013;-79
2024/04/13 08:03:44;;;;;;;6.22;3.22;;;21.00;94.00;;;;;;5495966;26;20350;-84
2024/04/13 08:06:20;;;;;;;7.00;2.65;;;21.30;94.40;;;;;;5452946;26;20002;-81
2024/04/13 08:08:52;;;;;;;6.20;2.78;;;21.50;92.90;;;;;;5484622;26;20134;-81
2024/04/13 08:11:23;;;;;;;4.53;1.47;;;21.60;93.10;;;;;;5487480;25;20043;-81
2024/04/13 08:13:51;;;;;;;4.93;1.30;;;21.40;91.50;;;;;;5461131;26;20012;-80
2024/04/13 08:16:26;;;;;;;9.98;1.73;;;21.30;85.60;;;;;;5498578;26;20006;-83
2024/04/13 08:19:07;;;;;;;3.92;1.27;;;20.50;82.20;;;;;;5510990;25;20003;-83
2024/04/13 08:24:37;;;;;;;2.63;1.02;;;21.40;80.30;;;;;;5459228;26;20002;-85
2024/04/13 08:27:08;;;;;;;4.20;1.00;;;21.70;81.80;;;;;;5484586;26;20006;-86
2024/04/13 08:29:44;;;;;;;4.20;1.35;;;21.40;80.50;;;;;;5481405;25;20002;-80
2024/04/13 08:33:00;;;;;;;3.00;0.90;;;21.70;79.50;;;;;;5466594;26;20065;-85
2024/04/13 08:35:37;;;;;;;3.22;1.10;;;22.20;80.00;;;;;;5510002;25;20078;-84
2024/04/13 08:38:11;;;;;;;2.95;0.82;;;21.50;79.10;;;;;;5457148;26;20010;-84
2024/04/13 08:41:02;;;;;;;7.38;0.90;;;21.80;80.10;;;;;;5489767;26;20047;-81
2024/04/13 08:43:37;;;;;;;3.97;1.25;;;22.00;79.00;;;;;;5502186;26;20446;-81
2024/04/13 08:46:25;;;;;;;3.55;0.80;;;22.70;79.00;;;;;;5492018;25;20006;-81
2024/04/13 08:49:03;;;;;;;7.00;1.15;;;22.10;78.50;;;;;;5521021;26;20002;-86
2024/04/13 08:55:42;;;;;;;4.18;0.90;;;20.90;76.70;;;;;;5505526;26;20054;-85
2024/04/13 09:02:16;;;;;;;3.40;0.60;;;23.20;75.00;;;;;;5506316;26;20070;-85
2024/04/13 09:05:49;;;;;;;2.83;0.80;;;23.90;74.50;;;;;;5461554;26;20010;-85
2024/04/13 09:08:21;;;;;;;1.55;0.70;;;22.70;71.70;;;;;;5406504;26;20049;-83
2024/04/13 09:10:53;;;;;;;1.57;0.40;;;22.70;72.20;;;;;;5401982;26;20012;-85
2024/04/13 09:13:24;;;;;;;3.97;1.17;;;22.40;72.10;;;;;;5406696;26;20272;-85
2024/04/13 09:23:00;;;;;;;2.33;0.68;;;23.20;70.30;;;;;;5499841;21;20035;-92
2024/04/13 09:25:28;;;;;;;4.75;1.35;;;23.10;70.80;;;;;;5330931;26;20002;-90
2024/04/13 09:28:03;;;;;;;1.48;0.50;;;23.20;70.10;;;;;;5356587;26;20018;-85
2024/04/13 09:30:31;;;;;;;3.05;0.90;;;23.10;69.00;;;;;;5331148;26;20086;-88
2024/04/13 09:33:06;;;;;;;2.95;0.88;;;23.00;68.10;;;;;;5335464;26;20020;-92
2024/04/13 09:35:35;;;;;;;4.60;1.48;;;23.20;69.10;;;;;;5335676;26;20001;-95
2024/04/13 09:38:14;;;;;;;3.90;1.17;;;23.40;69.20;;;;;;5342143;26;20014;-87
2024/04/13 09:40:42;;;;;;;1.60;0.45;;;23.50;67.70;;;;;;5344756;26;20017;-94
2024/04/13 09:43:13;;;;;;;1.60;0.60;;;23.60;68.20;;;;;;5344919;26;20078;-94
2024/04/13 09:45:41;;;;;;;3.92;0.60;;;23.60;67.20;;;;;;5371406;26;20079;-93
2024/04/13 09:48:17;;;;;;;6.45;0.95;;;23.80;70.40;;;;;;5354648;26;20015;-95
2024/04/13 09:50:48;;;;;;;3.95;0.63;;;23.60;67.40;;;;;;5357831;26;20114;-91
2024/04/13 09:53:23;;;;;;;2.08;0.50;;;23.60;66.50;;;;;;5349631;26;20004;-96
2024/04/13 09:55:51;;;;;;;4.07;0.68;;;23.40;65.80;;;;;;5332927;26;19997;-93
2024/04/13 09:58:21;;;;;;;2.78;0.57;;;23.50;66.30;;;;;;5338029;26;20448;-95
2024/04/13 10:00:50;;;;;;;3.35;1.10;;;23.70;66.30;;;;;;5351839;26;20001;-96
2024/04/13 10:04:30;;;;;;;6.30;0.95;;;23.90;65.90;;;;;;5366787;21;20018;-90
2024/04/13 10:07:11;;;;;;;4.07;0.63;;;23.90;66.00;;;;;;5330037;26;20698;-85
2024/04/13 10:09:43;;;;;;;3.50;0.95;;;24.00;65.40;;;;;;5330190;26;20001;-85
2024/04/13 10:12:19;;;;;;;3.38;0.60;;;23.90;64.00;;;;;;5327755;26;20012;-82
2024/04/13 10:14:52;;;;;;;4.00;0.70;;;23.80;63.80;;;;;;5330097;26;20530;-89
2024/04/13 10:17:21;;;;;;;4.30;0.73;;;23.90;63.40;;;;;;5333459;26;20010;-86
2024/04/13 10:19:51;;;;;;;2.55;0.50;;;24.20;64.50;;;;;;5307241;26;20004;-85
2024/04/13 10:22:22;;;;;;;4.65;0.45;;;24.30;62.60;;;;;;5323384;26;20016;-88
2024/04/13 10:25:07;;;;;;;4.07;0.68;;;24.30;61.80;;;;;;5329083;26;20005;-86
2024/04/13 10:27:38;;;;;;;12.70;1.27;;;24.00;61.90;;;;;;5328523;26;20083;-89
2024/04/13 10:30:10;;;;;;;6.47;0.98;;;24.00;62.30;;;;;;5332335;26;19998;-81
2024/04/13 10:32:43;;;;;;;2.20;0.50;;;23.90;62.10;;;;;;5303400;26;20467;-84
2024/04/13 10:35:20;;;;;;;5.20;0.50;;;23.80;60.90;;;;;;5325889;26;20017;-80
2024/04/13 10:37:51;;;;;;;1.60;0.50;;;24.00;60.80;;;;;;5354272;26;20004;-84
2024/04/13 10:40:26;;;;;;;2.80;0.50;;;23.90;60.10;;;;;;5358864;26;20078;-85
2024/04/13 10:43:03;;;;;;;3.60;0.95;;;24.00;60.70;;;;;;5363940;26;20055;-86
2024/04/13 10:45:35;;;;;;;1.92;0.52;;;24.20;60.50;;;;;;5356814;26;20004;-81
2024/04/13 10:48:06;;;;;;;5.55;0.90;;;24.10;60.30;;;;;;5349797;26;20018;-85
2024/04/13 10:50:38;;;;;;;1.20;0.43;;;24.20;60.10;;;;;;5369862;26;20011;-84
2024/04/13 10:53:12;;;;;;;1.48;0.40;;;24.20;61.30;;;;;;5361310;26;20070;-84
2024/04/13 10:55:43;;;;;;;2.65;0.50;;;24.30;60.90;;;;;;5380130;26;20013;-85
2024/04/13 10:58:12;;;;;;;2.92;0.68;;;24.40;60.60;;;;;;5360550;26;20474;-84
2024/04/13 11:00:47;;;;;;;1.52;0.40;;;24.30;60.30;;;;;;5363247;26;20070;-84
2024/04/13 11:03:15;;;;;;;4.45;0.60;;;24.30;60.00;;;;;;5363830;26;20005;-84
2024/04/13 11:05:48;;;;;;;6.15;0.95;;;24.30;60.50;;;;;;5363171;26;20040;-85
2024/04/13 11:08:20;;;;;;;5.10;0.30;;;24.30;60.80;;;;;;5357622;26;20079;-84
2024/04/13 11:10:52;;;;;;;4.35;0.47;;;24.30;61.10;;;;;;5366431;26;20035;-86
2024/04/13 11:13:20;;;;;;;1.42;0.52;;;24.40;60.30;;;;;;5366879;26;20345;-84
2024/04/13 11:15:50;;;;;;;5.43;0.50;;;24.40;60.70;;;;;;5368992;26;20000;-83
2024/04/13 11:18:20;;;;;;;1.15;0.47;;;24.50;60.90;;;;;;5363595;26;20823;-87
2024/04/13 11:20:54;;;;;;;5.20;0.68;;;24.40;60.50;;;;;;5365927;26;20081;-86
2024/04/13 11:23:25;;;;;;;1.40;0.50;;;24.60;61.60;;;;;;5395331;26;20012;-87
2024/04/13 11:25:55;;;;;;;3.28;0.50;;;24.90;61.90;;;;;;5365871;26;20000;-90
2024/04/13 11:28:24;;;;;;;2.05;0.82;;;24.70;61.90;;;;;;5390535;26;20000;-87
2024/04/13 11:30:56;;;;;;;6.10;0.77;;;24.80;62.70;;;;;;5363478;26;20021;-88
2024/04/13 11:33:24;;;;;;;2.45;0.30;;;24.70;61.00;;;;;;5357358;26;20001;-82
2024/04/13 11:35:59;;;;;;;3.10;1.05;;;24.80;61.20;;;;;;5364858;26;19997;-88
2024/04/13 11:38:33;;;;;;;4.03;0.50;;;24.80;61.30;;;;;;5364492;26;20008;-83
2024/04/13 11:41:04;;;;;;;1.52;0.50;;;25.10;62.90;;;;;;5370106;26;20008;-86
2024/04/13 11:43:31;;;;;;;4.68;1.48;;;25.30;62.90;;;;;;5364406;26;20069;-86
2024/04/13 11:46:02;;;;;;;1.17;0.40;;;25.40;61.20;;;;;;5365597;26;20001;-86
2024/04/13 11:48:31;;;;;;;3.63;0.75;;;25.10;61.40;;;;;;5396192;26;20464;-85
2024/04/13 11:51:01;;;;;;;3.83;0.55;;;25.00;62.20;;;;;;5363061;26;20015;-86
2024/04/13 11:53:35;;;;;;;0.70;0.43;;;24.80;60.80;;;;;;5359614;26;20387;-86
2024/04/13 11:56:07;;;;;;;3.70;0.60;;;25.00;61.60;;;;;;5366070;26;20007;-79
2024/04/13 11:58:34;;;;;;;2.08;0.60;;;25.00;61.50;;;;;;5361342;26;20047;-84
2024/04/13 12:01:05;;;;;;;3.15;0.75;;;25.00;61.30;;;;;;5362557;26;20018;-81
2024/04/13 12:03:33;;;;;;;2.60;0.50;;;24.80;61.70;;;;;;5366772;26;20004;-79
2024/04/13 12:06:03;;;;;;;1.92;0.50;;;25.00;61.80;;;;;;5363700;26;20012;-83
2024/04/13 12:08:34;;;;;;;2.85;0.47;;;25.00;61.60;;;;;;5369297;26;20000;-86
2024/04/13 12:11:04;;;;;;;2.72;1.08;;;25.00;61.80;;;;;;5366957;26;20011;-81
2024/04/13 12:13:32;;;;;;;2.17;0.80;;;25.20;62.30;;;;;;5393636;26;20368;-84
2024/04/13 12:16:02;;;;;;;3.63;0.80;;;25.30;61.30;;;;;;5371054;26;20050;-86
2024/04/13 12:18:33;;;;;;;2.15;0.40;;;25.40;60.80;;;;;;5362767;26;20000;-86
2024/04/13 12:21:03;;;;;;;4.20;0.50;;;25.20;60.20;;;;;;5370148;26;20011;-84
2024/04/13 12:23:34;;;;;;;2.78;0.43;;;25.20;60.20;;;;;;5363219;26;20012;-84
2024/04/13 12:26:05;;;;;;;5.60;0.80;;;25.10;59.80;;;;;;5370495;26;20019;-88
2024/04/13 12:28:34;;;;;;;2.92;0.40;;;25.00;60.50;;;;;;5367272;26;20015;-84
2024/04/13 12:31:04;;;;;;;1.38;0.38;;;25.10;60.20;;;;;;5399779;26;20004;-82
2024/04/13 12:33:32;;;;;;;3.42;0.70;;;25.10;60.30;;;;;;5369060;26;20452;-82
2024/04/13 12:36:05;;;;;;;3.30;0.77;;;25.10;59.90;;;;;;5368220;26;20001;-84
2024/04/13 12:38:35;;;;;;;3.28;0.73;;;25.10;60.70;;;;;;5361158;26;20042;-83
2024/04/13 12:41:06;;;;;;;1.58;0.35;;;25.20;59.50;;;;;;5370216;26;20004;-83
2024/04/13 12:43:34;;;;;;;1.95;0.30;;;25.40;59.00;;;;;;5392744;26;20024;-82
2024/04/13 12:46:04;;;;;;;3.92;0.70;;;25.20;58.30;;;;;;5369989;26;20000;-85
2024/04/13 12:48:33;;;;;;;2.40;0.70;;;25.50;58.80;;;;;;5389686;26;20328;-79
2024/04/13 12:51:04;;;;;;;9.52;1.20;;;25.50;58.40;;;;;;5377358;26;20463;-81
2024/04/13 12:53:34;;;;;;;4.72;0.60;;;25.50;58.70;;;;;;5370340;26;20418;-81
2024/04/13 12:56:05;;;;;;;1.45;0.30;;;25.30;58.40;;;;;;5361696;26;19997;-84
2024/04/13 12:58:32;;;;;;;2.25;0.40;;;25.40;58.50;;;;;;5369973;26;20004;-81
2024/04/13 13:01:05;;;;;;;3.03;0.82;;;25.40;59.20;;;;;;5389745;26;20009;-84
2024/04/13 13:03:33;;;;;;;3.28;0.45;;;25.40;58.70;;;;;;5369612;26;20396;-80
2024/04/13 13:06:03;;;;;;;3.30;0.70;;;25.40;58.60;;;;;;5370000;26;20004;-76
2024/04/13 13:08:33;;;;;;;4.13;0.60;;;25.40;58.30;;;;;;5362604;26;21164;-79
2024/04/13 13:11:03;;;;;;;2.25;0.55;;;25.30;57.70;;;;;;5371003;26;20000;-85
2024/04/13 13:13:32;;;;;;;2.90;0.30;;;25.20;58.00;;;;;;5367986;26;20687;-87
2024/04/13 13:16:03;;;;;;;2.05;0.40;;;25.20;58.30;;;;;;5368950;26;20015;-81
2024/04/13 13:18:30;;;;;;;2.08;0.38;;;25.10;58.20;;;;;;5394096;26;20016;-84
2024/04/13 13:21:04;;;;;;;1.75;0.40;;;25.10;58.20;;;;;;5370197;26;20452;-83